Kt Birdie — 3FUJ7 — position and weather

sailwx.info

Track history (hours):
 
Tides and Currents Weather Stations Pressure Air Temp Water Temp Dewpoint Dewpoint Depression Visibility Wind Speed Wind Dir Waves Ship Positions

Kt Birdie

Last reported at 2016-Mar-06 05:32 UTC. Time now 2016-May-04 13:36 UTC.
Position N 48°17' W 123°52'.
Warning: this ship's position is 59 days out of date.

Length 225 m; draft 14 m.

Type: Cargo ship. MMSI: 354803000.

Date/timePositionNaut miles runAvg speedWind from/ knotsBaromVisibWave heightAir tempDewpointWater temp
2016-Mar-06 05:32N 48°17' W 123°52'1111.6
2016-Mar-06 04:33N 48°16' W 123°35'10 9.8
2016-Mar-06 03:33N 48°23' W 123°24'9 9.6
2016-Mar-06 02:33N 48°27' W 123°12'1514.8
2016-Mar-06 01:33N 48°41' W 123°15'1312.5
2016-Mar-06 00:33N 48°50' W 123°01'1211.6
2016-Mar-05 23:33N 48°60' W 123°09'1 1.1
2016-Mar-05 22:31N 49°01' W 123°09'0 0.0
2016-Mar-05 21:31N 49°01' W 123°09'0 0.0
2016-Mar-05 20:31N 49°01' W 123°09'0 0.0
2016-Mar-05 19:31N 49°01' W 123°09'0 0.0
2016-Mar-05 18:31N 49°01' W 123°09'0 0.0
2016-Mar-05 17:31N 49°01' W 123°09'0 0.0
2016-Mar-05 16:31N 49°01' W 123°09'0 0.0
2016-Mar-05 15:31N 49°01' W 123°09'0 0.0
2016-Mar-05 14:31N 49°01' W 123°09'0 0.0
2016-Mar-05 13:31N 49°01' W 123°09'0 0.0
2016-Mar-05 12:31N 49°01' W 123°09'0 0.0
2016-Mar-05 11:28N 49°01' W 123°09'0 0.0
2016-Mar-05 10:31N 49°01' W 123°09'0 0.0
2016-Mar-05 09:31N 49°01' W 123°09'0 0.0
2016-Mar-05 08:31N 49°01' W 123°09'0 0.0
2016-Mar-05 07:31N 49°01' W 123°09'0 0.0
2016-Mar-05 06:31N 49°01' W 123°09'0 0.0
2016-Mar-05 05:31N 49°01' W 123°09'0 0.0
2016-Mar-05 04:31N 49°01' W 123°09'0 0.0
2016-Mar-05 03:31N 49°01' W 123°09'0 0.0
2016-Mar-05 02:31N 49°01' W 123°09'0 0.0
2016-Mar-05 01:31N 49°01' W 123°09'0 0.0
2016-Mar-05 00:31N 49°01' W 123°09'0 0.0
2016-Mar-04 23:31N 49°01' W 123°09'0 0.0
2016-Mar-04 22:31N 49°01' W 123°09'0 0.0
2016-Mar-04 21:28N 49°01' W 123°09'0 0.0
2016-Mar-04 20:31N 49°01' W 123°09'0 0.0
2016-Mar-04 19:31N 49°01' W 123°09'0 0.0
2016-Mar-04 18:31N 49°01' W 123°09'0 0.0
2016-Mar-04 17:28N 49°01' W 123°09'0 0.0
2016-Mar-04 16:31N 49°01' W 123°09'0 0.0
2016-Mar-04 15:31N 49°01' W 123°09'0 0.0
2016-Mar-04 14:31N 49°01' W 123°09'0 0.0
2016-Mar-04 13:31N 49°01' W 123°09'0 0.0
2016-Mar-04 12:31N 49°01' W 123°09'0 0.0
2016-Mar-04 11:31N 49°01' W 123°09'0 0.0
2016-Mar-04 10:31N 49°01' W 123°09'0 0.0
2016-Mar-04 09:31N 49°01' W 123°09'0 0.0
2016-Mar-04 08:31N 49°01' W 123°09'0 0.3
2016-Mar-04 07:33N 49°01' W 123°09'7 6.9
2016-Mar-04 06:33N 49°01' W 123°20'1211.6
2016-Mar-04 05:34N 49°13' W 123°21'1110.7
2016-Mar-04 04:33N 49°19' W 123°08'2 1.9
2016-Mar-04 03:31N 49°18' W 123°05'0 0.0
2016-Mar-04 02:31N 49°18' W 123°05'0 0.0
2016-Mar-04 01:31N 49°18' W 123°05'0 0.0
2016-Mar-04 00:31N 49°18' W 123°05'0 0.1
2016-Mar-03 23:31N 49°18' W 123°05'0 0.0
2016-Mar-03 22:31N 49°18' W 123°05'0 0.2
2016-Mar-03 21:31N 49°18' W 123°05'0 0.2
2016-Mar-03 20:31N 49°18' W 123°05'0 0.2
2016-Mar-03 19:31N 49°18' W 123°05'0 0.1
2016-Mar-03 18:31N 49°18' W 123°05'0 0.0
2016-Mar-03 17:31N 49°18' W 123°05'0 0.0
2016-Mar-03 16:31N 49°18' W 123°05'0 0.0
2016-Mar-03 15:31N 49°18' W 123°05'0 0.0
2016-Mar-03 14:31N 49°18' W 123°05'0 0.0
2016-Mar-03 13:31N 49°18' W 123°05'0 0.0
2016-Mar-03 12:31N 49°18' W 123°05'0 0.1
2016-Mar-03 11:31N 49°18' W 123°05'0 0.1
2016-Mar-03 10:31N 49°18' W 123°05'0 0.0
2016-Mar-03 09:31N 49°18' W 123°05'0 0.1
2016-Mar-03 08:31N 49°18' W 123°05'0 0.1
2016-Mar-03 07:31N 49°18' W 123°05'0 0.2
2016-Mar-03 06:31N 49°18' W 123°05'0 0.1
2016-Mar-03 05:31N 49°18' W 123°05'0 0.1
2016-Mar-03 04:31N 49°18' W 123°05'0 0.0
2016-Mar-03 03:31N 49°18' W 123°05'0 0.0
2016-Mar-03 02:31N 49°18' W 123°05'0 0.0
2016-Mar-03 01:31N 49°18' W 123°05'0 0.0
2016-Mar-03 00:31N 49°18' W 123°05'0 0.0
2016-Mar-02 23:31N 49°18' W 123°05'0 0.0
2016-Mar-02 22:31N 49°18' W 123°05'0 0.0
2016-Mar-02 21:31N 49°18' W 123°05'0 0.1
2016-Mar-02 20:31N 49°18' W 123°05'0 0.1
2016-Mar-02 19:28N 49°18' W 123°05'0 0.2
2016-Mar-02 18:31N 49°18' W 123°05'0 0.1
2016-Mar-02 17:31N 49°18' W 123°05'0 0.0
2016-Mar-02 16:31N 49°18' W 123°05'0 0.0
2016-Mar-02 15:31N 49°18' W 123°05'0 0.0
2016-Mar-02 14:31N 49°18' W 123°05'0 0.0
2016-Mar-02 13:31N 49°18' W 123°05'0 0.0
2016-Mar-02 12:31N 49°18' W 123°05'0 0.0
2016-Mar-02 11:31N 49°18' W 123°05'0 0.0
2016-Mar-02 10:31N 49°18' W 123°05'0 0.0
2016-Mar-02 09:31N 49°18' W 123°05'0 0.1
2016-Mar-02 08:31N 49°18' W 123°05'0 0.0
2016-Mar-02 07:31N 49°18' W 123°05'0 0.0
2016-Mar-02 06:31N 49°18' W 123°05'0 0.0
2016-Mar-02 05:31N 49°18' W 123°05'0 0.1
2016-Mar-02 04:31N 49°18' W 123°05'0 0.0
2016-Mar-02 03:31N 49°18' W 123°05'0 0.0
2016-Mar-02 02:31N 49°18' W 123°05'0 0.1
2016-Mar-02 01:31N 49°18' W 123°05'0 0.0
2016-Mar-02 00:31N 49°18' W 123°05'0 0.0
2016-Mar-01 23:31N 49°18' W 123°05'0 0.0
2016-Mar-01 22:31N 49°18' W 123°05'0 0.0
2016-Mar-01 21:31N 49°18' W 123°05'0 0.0
2016-Mar-01 20:31N 49°18' W 123°05'0 0.0
2016-Mar-01 19:31N 49°18' W 123°05'0 0.1
2016-Mar-01 18:31N 49°18' W 123°05'0 0.1
2016-Mar-01 17:31N 49°18' W 123°05'0 0.0
2016-Mar-01 16:28N 49°18' W 123°05'0 0.0
2016-Mar-01 15:31N 49°18' W 123°05'0 0.0
2016-Mar-01 14:31N 49°18' W 123°05'0 0.0
2016-Mar-01 13:31N 49°18' W 123°05'0 0.0
2016-Mar-01 12:31N 49°18' W 123°05'0 0.0
2016-Mar-01 11:31N 49°18' W 123°05'0 0.0
2016-Mar-01 10:31N 49°18' W 123°05'0 0.0
2016-Mar-01 09:31N 49°18' W 123°05'0 0.0
2016-Mar-01 08:33N 49°18' W 123°05'6 5.8
2016-Mar-01 07:33N 49°18' W 123°14'1212.5
2016-Mar-01 06:33N 49°07' W 123°20'1414.0
2016-Mar-01 05:33N 48°55' W 123°07'1110.9
2016-Mar-01 04:33N 48°45' W 123°05'1111.2
2016-Mar-01 03:33N 48°34' W 123°12'1212.4
2016-Mar-01 02:33N 48°23' W 123°18'9 8.9
2016-Mar-01 01:34N 48°16' W 123°26'1110.8
2016-Mar-01 00:33N 48°13' W 123°42'1513.3
2016-Feb-29 23:27N 48°16' W 124°04'10 9.6
2016-Feb-29 22:27N 48°20' W 124°17'3010.2
2016-Feb-29 19:33N 48°29' W 124°60'1110.8
2016-Feb-29 18:31N 48°29' W 125°17'6 6.4
2016-Feb-29 17:33N 48°27' W 125°26'1111.2
2016-Feb-29 16:33N 48°25' W 125°42'1111.3
2016-Feb-29 15:33N 48°25' W 125°59'1211.5
2016-Feb-29 14:33N 48°24' W 126°17'  
Track history (hours):
 
Tides and Currents Weather Stations Pressure Air Temp Water Temp Dewpoint Dewpoint Depression Visibility Wind Speed Wind Dir Waves Ship Positions

Kt Birdie

Last reported at 2016-Mar-06 05:32 UTC. Time now 2016-May-04 13:36 UTC.
Position N 48°17' W 123°52'.
Warning: this ship's position is 59 days out of date.

Length 225 m; draft 14 m.

Type: Cargo ship. MMSI: 354803000.

Date/timePositionNaut miles runAvg speedWind from/ knotsBaromVisibWave heightAir tempDewpointWater temp
2016-Mar-06 05:32N 48°17' W 123°52'1111.6
2016-Mar-06 04:33N 48°16' W 123°35'10 9.8
2016-Mar-06 03:33N 48°23' W 123°24'9 9.6
2016-Mar-06 02:33N 48°27' W 123°12'1514.8
2016-Mar-06 01:33N 48°41' W 123°15'1312.5
2016-Mar-06 00:33N 48°50' W 123°01'1211.6
2016-Mar-05 23:33N 48°60' W 123°09'1 1.1
2016-Mar-05 22:31N 49°01' W 123°09'0 0.0
2016-Mar-05 21:31N 49°01' W 123°09'0 0.0
2016-Mar-05 20:31N 49°01' W 123°09'0 0.0
2016-Mar-05 19:31N 49°01' W 123°09'0 0.0
2016-Mar-05 18:31N 49°01' W 123°09'0 0.0
2016-Mar-05 17:31N 49°01' W 123°09'0 0.0
2016-Mar-05 16:31N 49°01' W 123°09'0 0.0
2016-Mar-05 15:31N 49°01' W 123°09'0 0.0
2016-Mar-05 14:31N 49°01' W 123°09'0 0.0
2016-Mar-05 13:31N 49°01' W 123°09'0 0.0
2016-Mar-05 12:31N 49°01' W 123°09'0 0.0
2016-Mar-05 11:28N 49°01' W 123°09'0 0.0
2016-Mar-05 10:31N 49°01' W 123°09'0 0.0
2016-Mar-05 09:31N 49°01' W 123°09'0 0.0
2016-Mar-05 08:31N 49°01' W 123°09'0 0.0
2016-Mar-05 07:31N 49°01' W 123°09'0 0.0
2016-Mar-05 06:31N 49°01' W 123°09'0 0.0
2016-Mar-05 05:31N 49°01' W 123°09'0 0.0
2016-Mar-05 04:31N 49°01' W 123°09'0 0.0
2016-Mar-05 03:31N 49°01' W 123°09'0 0.0
2016-Mar-05 02:31N 49°01' W 123°09'0 0.0
2016-Mar-05 01:31N 49°01' W 123°09'0 0.0
2016-Mar-05 00:31N 49°01' W 123°09'0 0.0
2016-Mar-04 23:31N 49°01' W 123°09'0 0.0
2016-Mar-04 22:31N 49°01' W 123°09'0 0.0
2016-Mar-04 21:28N 49°01' W 123°09'0 0.0
2016-Mar-04 20:31N 49°01' W 123°09'0 0.0
2016-Mar-04 19:31N 49°01' W 123°09'0 0.0
2016-Mar-04 18:31N 49°01' W 123°09'0 0.0
2016-Mar-04 17:28N 49°01' W 123°09'0 0.0
2016-Mar-04 16:31N 49°01' W 123°09'0 0.0
2016-Mar-04 15:31N 49°01' W 123°09'0 0.0
2016-Mar-04 14:31N 49°01' W 123°09'0 0.0
2016-Mar-04 13:31N 49°01' W 123°09'0 0.0
2016-Mar-04 12:31N 49°01' W 123°09'0 0.0
2016-Mar-04 11:31N 49°01' W 123°09'0 0.0
2016-Mar-04 10:31N 49°01' W 123°09'0 0.0
2016-Mar-04 09:31N 49°01' W 123°09'0 0.0
2016-Mar-04 08:31N 49°01' W 123°09'0 0.3
2016-Mar-04 07:33N 49°01' W 123°09'7 6.9
2016-Mar-04 06:33N 49°01' W 123°20'1211.6
2016-Mar-04 05:34N 49°13' W 123°21'1110.7
2016-Mar-04 04:33N 49°19' W 123°08'2 1.9
2016-Mar-04 03:31N 49°18' W 123°05'0 0.0
2016-Mar-04 02:31N 49°18' W 123°05'0 0.0
2016-Mar-04 01:31N 49°18' W 123°05'0 0.0
2016-Mar-04 00:31N 49°18' W 123°05'0 0.1
2016-Mar-03 23:31N 49°18' W 123°05'0 0.0
2016-Mar-03 22:31N 49°18' W 123°05'0 0.2
2016-Mar-03 21:31N 49°18' W 123°05'0 0.2
2016-Mar-03 20:31N 49°18' W 123°05'0 0.2
2016-Mar-03 19:31N 49°18' W 123°05'0 0.1
2016-Mar-03 18:31N 49°18' W 123°05'0 0.0
2016-Mar-03 17:31N 49°18' W 123°05'0 0.0
2016-Mar-03 16:31N 49°18' W 123°05'0 0.0
2016-Mar-03 15:31N 49°18' W 123°05'0 0.0
2016-Mar-03 14:31N 49°18' W 123°05'0 0.0
2016-Mar-03 13:31N 49°18' W 123°05'0 0.0
2016-Mar-03 12:31N 49°18' W 123°05'0 0.1
2016-Mar-03 11:31N 49°18' W 123°05'0 0.1
2016-Mar-03 10:31N 49°18' W 123°05'0 0.0
2016-Mar-03 09:31N 49°18' W 123°05'0 0.1
2016-Mar-03 08:31N 49°18' W 123°05'0 0.1
2016-Mar-03 07:31N 49°18' W 123°05'0 0.2
2016-Mar-03 06:31N 49°18' W 123°05'0 0.1
2016-Mar-03 05:31N 49°18' W 123°05'0 0.1
2016-Mar-03 04:31N 49°18' W 123°05'0 0.0
2016-Mar-03 03:31N 49°18' W 123°05'0 0.0
2016-Mar-03 02:31N 49°18' W 123°05'0 0.0
2016-Mar-03 01:31N 49°18' W 123°05'0 0.0
2016-Mar-03 00:31N 49°18' W 123°05'0 0.0
2016-Mar-02 23:31N 49°18' W 123°05'0 0.0
2016-Mar-02 22:31N 49°18' W 123°05'0 0.0
2016-Mar-02 21:31N 49°18' W 123°05'0 0.1
2016-Mar-02 20:31N 49°18' W 123°05'0 0.1
2016-Mar-02 19:28N 49°18' W 123°05'0 0.2
2016-Mar-02 18:31N 49°18' W 123°05'0 0.1
2016-Mar-02 17:31N 49°18' W 123°05'0 0.0
2016-Mar-02 16:31N 49°18' W 123°05'0 0.0
2016-Mar-02 15:31N 49°18' W 123°05'0 0.0
2016-Mar-02 14:31N 49°18' W 123°05'0 0.0
2016-Mar-02 13:31N 49°18' W 123°05'0 0.0
2016-Mar-02 12:31N 49°18' W 123°05'0 0.0
2016-Mar-02 11:31N 49°18' W 123°05'0 0.0
2016-Mar-02 10:31N 49°18' W 123°05'0 0.0
2016-Mar-02 09:31N 49°18' W 123°05'0 0.1
2016-Mar-02 08:31N 49°18' W 123°05'0 0.0
2016-Mar-02 07:31N 49°18' W 123°05'0 0.0
2016-Mar-02 06:31N 49°18' W 123°05'0 0.0
2016-Mar-02 05:31N 49°18' W 123°05'0 0.1
2016-Mar-02 04:31N 49°18' W 123°05'0 0.0
2016-Mar-02 03:31N 49°18' W 123°05'0 0.0
2016-Mar-02 02:31N 49°18' W 123°05'0 0.1
2016-Mar-02 01:31N 49°18' W 123°05'0 0.0
2016-Mar-02 00:31N 49°18' W 123°05'0 0.0
2016-Mar-01 23:31N 49°18' W 123°05'0 0.0
2016-Mar-01 22:31N 49°18' W 123°05'0 0.0
2016-Mar-01 21:31N 49°18' W 123°05'0 0.0
2016-Mar-01 20:31N 49°18' W 123°05'0 0.0
2016-Mar-01 19:31N 49°18' W 123°05'0 0.1
2016-Mar-01 18:31N 49°18' W 123°05'0 0.1
2016-Mar-01 17:31N 49°18' W 123°05'0 0.0
2016-Mar-01 16:28N 49°18' W 123°05'0 0.0
2016-Mar-01 15:31N 49°18' W 123°05'0 0.0
2016-Mar-01 14:31N 49°18' W 123°05'0 0.0
2016-Mar-01 13:31N 49°18' W 123°05'0 0.0
2016-Mar-01 12:31N 49°18' W 123°05'0 0.0
2016-Mar-01 11:31N 49°18' W 123°05'0 0.0
2016-Mar-01 10:31N 49°18' W 123°05'0 0.0
2016-Mar-01 09:31N 49°18' W 123°05'0 0.0
2016-Mar-01 08:33N 49°18' W 123°05'6 5.8
2016-Mar-01 07:33N 49°18' W 123°14'1212.5
2016-Mar-01 06:33N 49°07' W 123°20'1414.0
2016-Mar-01 05:33N 48°55' W 123°07'1110.9
2016-Mar-01 04:33N 48°45' W 123°05'1111.2
2016-Mar-01 03:33N 48°34' W 123°12'1212.4
2016-Mar-01 02:33N 48°23' W 123°18'9 8.9
2016-Mar-01 01:34N 48°16' W 123°26'1110.8
2016-Mar-01 00:33N 48°13' W 123°42'1513.3
2016-Feb-29 23:27N 48°16' W 124°04'10 9.6
2016-Feb-29 22:27N 48°20' W 124°17'3010.2
2016-Feb-29 19:33N 48°29' W 124°60'1110.8
2016-Feb-29 18:31N 48°29' W 125°17'6 6.4
2016-Feb-29 17:33N 48°27' W 125°26'1111.2
2016-Feb-29 16:33N 48°25' W 125°42'1111.3
2016-Feb-29 15:33N 48°25' W 125°59'1211.5
2016-Feb-29 14:33N 48°24' W 126°17'  

Dump ship's entire track history